Latest Coastal Weather Observations for Creal Reef

IDQ60701

Issued at 3:31 am EST Sunday 30 April 2017 (issued every 10 minutes, with the page automatically refreshed every 10 minutes)

About coastal observations | Map of coastal stations | Coastal observations for QLD | Marine services | Other Formats
Station Details ID: 200736 Name: CREAL REEF Lat: -20.53 Lon: 150.38 Height: 1.7 m
Data from the previous 72 hours. | See also: Recent months for locations in Queensland
Date/Time
EST
Temp
°C
Wind Pressure Rain since
9am
mm
Weather Cloud Vis
km
Sea
Height
m
Swell
Dir  Spd
kts
Gust
kts
hPa Trend Height
m
Period
s
Dir
30/03:30am 25.0 ESE 20 24 1014.0 - - - - - - - - -
30/03:20am 24.9 ESE 19 21 1013.9 - - - - - - - - -
30/03:00am 24.6 SE 14 17 1014.0 - - - - - - - - -
30/02:30am 23.6 SE 12 14 1014.3 - - - - - - - - -
30/02:20am 23.5 ESE 15 - 1014.3 - - - - - - - - -
30/02:09am 23.3 E 20 33 1014.6 - - - - - - - - -
30/02:00am 23.5 ESE 31 35 1014.6 - - - - - - - - -
30/01:59am 23.6 ESE 32 35 1014.6 - - - - - - - - -
30/01:58am 23.9 SE 21 34 1014.5 - - - - - - - - -
30/01:30am 23.7 SE 20 23 1014.7 - - - - - - - - -
30/01:20am 23.7 SE 22 - 1014.7 - - - - - - - - -
30/01:00am 25.0 ESE 18 20 1014.8 - - - - - - - - -
30/12:30am 24.6 ESE 17 21 1015.0 - - - - - - - - -
30/12:20am 24.1 SE 18 - 1015.1 - - - - - - - - -
30/12:00am 24.5 SE 21 24 1015.4 - - - - - - - - -
 
Date/Time
EST
Temp
°C
Wind Pressure Rain since
9am
mm
Weather Cloud Vis
km
Sea
Height
m
Swell
Dir  Spd
kts
Gust
kts
hPa Trend Height
m
Period
s
Dir
29/11:30pm 24.6 SE 19 23 1015.5 - - - - - - - - -
29/11:20pm 24.2 SE 19 - 1015.4 - - - - - - - - -
29/11:00pm 24.2 ESE 22 26 1015.6 - - - - - - - - -
29/10:30pm 24.7 SE 17 19 1015.7 - - - - - - - - -
29/10:20pm 24.7 SSE 15 - 1015.5 - - - - - - - - -
29/10:00pm 24.8 SE 14 16 1015.5 - - - - - - - - -
29/09:30pm 24.1 ESE 16 20 1015.8 - - - - - - - - -
29/09:20pm 24.0 E 18 - 1015.8 - - - - - - - - -
29/09:16pm 24.6 SSE 17 25 1015.8 - - - - - - - - -
29/09:00pm 24.0 S 12 14 1015.9 - - - - - - - - -
29/08:30pm 24.2 S 16 19 1015.8 - - - - - - - - -
29/08:20pm 24.1 S 17 - 1015.7 - - - - - - - - -
29/08:00pm 24.3 S 19 22 1015.8 - - - - - - - - -
29/07:30pm 24.3 S 18 21 1015.5 - - - - - - - - -
29/07:20pm 24.4 S 18 - 1015.4 - - - - - - - - -
29/07:00pm 24.5 S 18 20 1015.4 - - - - - - - - -
29/06:30pm 24.3 S 19 23 1015.3 - - - - - - - - -
29/06:20pm 24.4 S 20 - 1015.1 - - - - - - - - -
29/06:00pm 24.3 S 21 24 1015.1 - - - - - - - - -
29/05:30pm 24.2 S 21 23 1014.8 - - - - - - - - -
29/05:20pm 24.3 S 20 - 1014.5 - - - - - - - - -
29/05:00pm 24.4 S 21 24 1014.4 - - - - - - - - -
29/04:30pm 24.4 S 22 25 1014.3 - - - - - - - - -
29/04:20pm 24.2 S 23 - 1014.2 - - - - - - - - -
29/04:00pm 24.6 S 21 24 1014.1 - - - - - - - - -
29/03:30pm 24.6 SSE 20 23 1013.9 - - - - - - - - -
29/03:20pm 24.5 SSE 20 - 1013.7 - - - - - - - - -
29/03:00pm 24.3 SSE 20 24 1013.8 - - - - - - - - -
29/02:30pm 23.9 S 23 27 1013.7 - - - - - - - - -
29/02:20pm 24.0 S 22 - 1013.7 - - - - - - - - -
29/02:00pm 23.8 S 22 26 1014.0 - - - - - - - - -
29/01:30pm 23.9 S 21 25 1014.2 - - - - - - - - -
29/01:20pm 23.9 S 21 - 1014.2 - - - - - - - - -
29/01:00pm 23.7 S 21 24 1014.6 - - - - - - - - -
29/12:30pm 23.6 S 19 22 1015.1 - - - - - - - - -
29/12:20pm 23.5 S 19 - 1015.0 - - - - - - - - -
29/12:00pm 23.6 S 18 22 1015.4 - - - - - - - - -
29/11:30am 23.7 S 17 21 1015.7 - - - - - - - - -
29/11:20am 23.7 S 18 - 1015.7 - - - - - - - - -
29/11:00am 23.7 S 17 20 1016.1 - - - - - - - - -
29/10:30am 23.7 S 16 22 1016.4 - - - - - - - - -
29/10:20am 23.7 S 16 - 1016.3 - - - - - - - - -
29/10:00am 23.5 S 16 20 1016.4 - - - - - - - - -
29/09:30am 23.6 S 17 21 1016.5 - - - - - - - - -
29/09:20am 23.3 S 18 - 1016.4 - - - - - - - - -
29/09:00am 23.4 S 16 19 1016.4 - - - - - - - - -
29/08:30am 23.4 S 15 18 1016.1 - - - - - - - - -
29/08:20am 23.2 S 16 - 1015.9 - - - - - - - - -
29/08:00am 23.1 S 16 21 1015.8 - - - - - - - - -
29/07:30am 23.0 S 16 19 1015.5 - - - - - - - - -
29/07:20am 23.0 S 17 - 1015.4 - - - - - - - - -
29/07:00am 22.9 S 16 21 1015.5 - - - - - - - - -
29/06:30am 22.6 SSW 18 21 1015.0 - - - - - - - - -
29/06:20am 22.5 SSW 18 - 1014.8 - - - - - - - - -
29/06:00am 22.7 S 17 21 1014.6 - - - - - - - - -
29/05:30am 22.7 S 17 21 1014.3 - - - - - - - - -
29/05:20am 22.8 S 17 - 1014.3 - - - - - - - - -
29/05:00am 22.7 S 17 21 1014.3 - - - - - - - - -
29/04:30am 23.4 S 16 19 1013.9 - - - - - - - - -
29/04:20am 23.2 S 14 - 1013.9 - - - - - - - - -
29/04:00am 23.1 S 15 20 1013.9 - - - - - - - - -
29/03:30am 23.1 SSE 16 19 1014.2 - - - - - - - - -
29/03:20am 23.0 S 15 - 1014.1 - - - - - - - - -
29/03:00am 23.0 S 16 20 1014.3 - - - - - - - - -
29/02:30am 22.8 S 15 19 1014.1 - - - - - - - - -
29/02:20am 22.8 S 15 - 1014.1 - - - - - - - - -
29/02:00am 22.6 SSE 14 17 1014.5 - - - - - - - - -
29/01:30am 22.5 S 16 21 1014.8 - - - - - - - - -
29/01:20am 22.6 S 17 - 1014.9 - - - - - - - - -
29/01:00am 22.4 S 15 19 1015.3 - - - - - - - - -
29/12:30am 22.5 S 15 22 1015.6 - - - - - - - - -
29/12:20am 22.4 SSE 15 - 1015.6 - - - - - - - - -
29/12:00am 22.1 S 15 20 1015.9 - - - - - - - - -
 
Date/Time
EST
Temp
°C
Wind Pressure Rain since
9am
mm
Weather Cloud Vis
km
Sea
Height
m
Swell
Dir  Spd
kts
Gust
kts
hPa Trend Height
m
Period
s
Dir
28/11:30pm 21.8 S 15 19 1016.1 - - - - - - - - -
28/11:20pm 21.9 S 15 - 1016.1 - - - - - - - - -
28/11:00pm 22.0 S 18 24 1016.4 - - - - - - - - -
28/10:30pm 21.9 S 19 23 1016.2 - - - - - - - - -
28/10:20pm 21.9 S 16 - 1016.2 - - - - - - - - -
28/10:00pm 21.8 S 18 24 1016.5 - - - - - - - - -
28/09:30pm 21.5 S 18 23 1016.6 - - - - - - - - -
28/09:20pm 21.5 S 18 - 1016.4 - - - - - - - - -
28/09:00pm 21.3 S 17 21 1016.4 - - - - - - - - -
28/08:30pm 21.2 S 18 22 1016.3 - - - - - - - - -
28/08:20pm 21.3 S 18 - 1016.1 - - - - - - - - -
28/08:00pm 21.1 S 17 21 1016.0 - - - - - - - - -
28/07:30pm 21.1 S 18 21 1015.6 - - - - - - - - -
28/07:20pm 21.1 S 20 - 1015.3 - - - - - - - - -
28/07:00pm 21.1 S 19 23 1015.2 - - - - - - - - -
28/06:30pm 21.0 S 19 22 1015.0 - - - - - - - - -
28/06:20pm 21.0 S 19 - 1014.8 - - - - - - - - -
28/06:00pm 21.1 S 19 24 1014.7 - - - - - - - - -
28/05:30pm 21.0 S 19 22 1014.3 - - - - - - - - -
28/05:20pm 20.8 S 18 - 1014.1 - - - - - - - - -
28/05:00pm 20.9 S 19 22 1014.2 - - - - - - - - -
28/04:30pm 20.8 S 18 23 1014.0 - - - - - - - - -
28/04:20pm 20.8 S 19 - 1013.6 - - - - - - - - -
28/04:00pm 20.8 S 18 22 1013.7 - - - - - - - - -
28/03:30pm 20.7 S 18 22 1013.4 - - - - - - - - -
28/03:20pm 20.8 S 17 - 1013.3 - - - - - - - - -
28/03:00pm 20.8 S 17 21 1013.4 - - - - - - - - -
28/02:30pm 20.4 S 19 23 1013.4 - - - - - - - - -
28/02:20pm 20.4 S 18 - 1013.3 - - - - - - - - -
28/02:00pm 20.5 S 17 20 1013.6 - - - - - - - - -
28/01:30pm 20.2 SSW 18 22 1013.7 - - - - - - - - -
28/01:20pm 20.6 SSW 18 - 1013.8 - - - - - - - - -
28/01:00pm 20.5 S 18 23 1014.1 - - - - - - - - -
28/12:30pm 20.3 S 21 26 1014.5 - - - - - - - - -
28/12:20pm 20.3 S 20 - 1014.7 - - - - - - - - -
28/12:00pm 20.4 S 20 25 1015.0 - - - - - - - - -
28/11:30am 20.5 S 20 24 1015.7 - - - - - - - - -
28/11:20am 20.2 S 19 - 1015.8 - - - - - - - - -
28/11:00am 20.3 S 20 25 1016.2 - - - - - - - - -
28/10:30am 20.7 SSW 20 23 1016.6 - - - - - - - - -
28/10:20am 20.6 S 21 - 1016.5 - - - - - - - - -
28/10:00am 20.9 S 20 25 1016.8 - - - - - - - - -
28/09:30am 20.7 S 21 24 1016.8 - - - - - - - - -
28/09:20am 20.7 S 20 - 1016.6 - - - - - - - - -
28/09:00am 20.9 S 22 26 1016.5 - - - - - - - - -
28/08:30am 21.2 S 21 25 1016.3 - - - - - - - - -
28/08:20am 20.9 S 21 - 1016.0 - - - - - - - - -
28/08:00am 21.2 S 21 25 1015.8 - - - - - - - - -
28/07:30am 21.2 S 21 25 1015.5 - - - - - - - - -
28/07:20am 21.2 S 22 - 1015.2 - - - - - - - - -
28/07:00am 21.3 S 23 28 1015.0 - - - - - - - - -
28/06:30am 21.4 S 24 29 1014.7 - - - - - - - - -
28/06:20am 21.5 S 24 - 1014.6 - - - - - - - - -
28/06:00am 21.5 S 25 28 1014.3 - - - - - - - - -
28/05:30am 21.8 S 24 30 1014.2 - - - - - - - - -
28/05:20am 21.7 S 25 - 1014.2 - - - - - - - - -
28/05:00am 22.1 S 24 29 1014.1 - - - - - - - - -
28/04:30am 22.5 S 26 30 1013.9 - - - - - - - - -
28/04:20am 22.8 S 25 - 1013.8 - - - - - - - - -
28/04:00am 22.7 S 24 29 1013.8 - - - - - - - - -
28/03:30am 22.9 S 24 28 1013.4 - - - - - - - - -
28/03:20am 23.0 S 23 - 1013.2 - - - - - - - - -
28/03:00am 23.2 S 24 28 1013.3 - - - - - - - - -
28/02:30am 23.5 S 24 29 1013.1 - - - - - - - - -
28/02:20am 23.5 S 24 - 1012.9 - - - - - - - - -
28/02:00am 23.6 S 23 27 1013.1 - - - - - - - - -
28/01:30am 24.0 S 22 27 1013.2 - - - - - - - - -
28/01:20am 24.1 S 22 - 1013.1 - - - - - - - - -
28/01:00am 24.3 S 22 25 1013.2 - - - - - - - - -
28/12:30am 24.3 S 21 25 1013.4 - - - - - - - - -
28/12:20am 24.4 S 21 - 1013.4 - - - - - - - - -
28/12:00am 24.4 S 21 25 1013.4 - - - - - - - - -
 
Date/Time
EST
Temp
°C
Wind Pressure Rain since
9am
mm
Weather Cloud Vis
km
Sea
Height
m
Swell
Dir  Spd
kts
Gust
kts
hPa Trend Height
m
Period
s
Dir
27/11:30pm 24.5 S 21 25 1013.5 - - - - - - - - -
27/11:20pm 24.4 S 20 - 1013.5 - - - - - - - - -
27/11:00pm 24.7 S 20 23 1013.6 - - - - - - - - -
27/10:30pm 24.3 S 21 24 1013.8 - - - - - - - - -
27/10:20pm 24.3 S 21 - 1013.7 - - - - - - - - -
27/10:00pm 24.4 S 21 24 1013.5 - - - - - - - - -
27/09:30pm 24.3 S 24 28 1013.7 - - - - - - - - -
27/09:20pm 24.4 S 24 - 1013.6 - - - - - - - - -
27/09:00pm 24.5 S 24 28 1013.7 - - - - - - - - -
27/08:30pm 24.4 S 26 29 1013.2 - - - - - - - - -
27/08:20pm 24.5 S 23 - 1013.1 - - - - - - - - -
27/08:00pm 24.7 S 22 25 1013.0 - - - - - - - - -
27/07:30pm 24.6 S 24 27 1012.5 - - - - - - - - -
27/07:20pm 24.9 S 22 - 1012.3 - - - - - - - - -
27/07:00pm 25.1 S 23 27 1011.9 - - - - - - - - -
27/06:30pm 25.4 S 20 22 1011.7 - - - - - - - - -
27/06:20pm 25.4 S 18 - 1011.5 - - - - - - - - -
27/06:00pm 25.5 S 10 13 1011.5 - - - - - - - - -
27/05:30pm 25.5 SSW 11 13 1011.1 - - - - - - - - -
27/05:20pm 25.5 SSW 11 - 1010.9 - - - - - - - - -
27/05:00pm 25.5 SSW 10 11 1010.7 - - - - - - - - -
27/04:30pm 26.0 SSW 11 13 1010.4 - - - - - - - - -
27/04:20pm 26.1 SW 11 - 1010.3 - - - - - - - - -
27/04:00pm 26.1 WSW 10 12 1010.4 - - - - - - - - -
27/03:30pm 26.3 WSW 8 10 1010.3 - - - - - - - - -
27/03:20pm 26.3 W 9 - 1010.2 - - - - - - - - -
27/03:00pm 26.5 W 8 9 1010.3 - - - - - - - - -
27/02:30pm 26.4 W 8 9 1010.5 - - - - - - - - -
27/02:20pm 26.5 W 8 - 1010.4 - - - - - - - - -
27/02:00pm 26.3 W 8 10 1010.7 - - - - - - - - -
27/01:30pm 26.4 W 8 10 1010.9 - - - - - - - - -
27/01:20pm 26.5 W 8 - 1010.9 - - - - - - - - -
27/01:00pm 26.5 W 7 8 1011.3 - - - - - - - - -
27/12:30pm 26.5 WNW 6 8 1011.6 - - - - - - - - -
27/12:20pm 26.5 WNW 5 - 1011.6 - - - - - - - - -
27/12:00pm 26.1 NW 4 6 1011.9 - - - - - - - - -
27/11:30am 26.6 NNW 3 5 1012.4 - - - - - - - - -
27/11:20am 26.2 NNW 5 - 1012.3 - - - - - - - - -
27/11:00am 26.3 NNW 4 6 1012.7 - - - - - - - - -
27/10:30am 26.3 NNW 4 5 1013.3 - - - - - - - - -
27/10:20am 26.6 NNW 3 - 1013.2 - - - - - - - - -
27/10:00am 26.8 WNW 4 5 1013.4 - - - - - - - - -
27/09:30am 26.5 NW 4 5 1013.6 - - - - - - - - -
27/09:20am 26.2 NNW 4 - 1013.6 - - - - - - - - -
27/09:00am 26.6 WNW 5 6 1013.6 - - - - - - - - -
27/08:30am 26.6 W 4 6 1013.4 - - - - - - - - -
27/08:20am 26.3 W 6 - 1013.2 - - - - - - - - -
27/08:00am 26.1 W 7 8 1013.1 - - - - - - - - -
27/07:30am 25.9 W 8 9 1013.0 - - - - - - - - -
27/07:20am 25.7 W 8 - 1012.7 - - - - - - - - -
27/07:00am 25.6 W 8 9 1012.5 - - - - - - - - -
27/06:30am 25.3 W 10 12 1012.2 - - - - - - - - -
27/06:20am 25.4 WNW 10 - 1011.9 - - - - - - - - -
27/06:00am 25.3 WNW 9 12 1011.8 - - - - - - - - -
27/05:30am 25.2 NW 9 11 1011.2 - - - - - - - - -
27/05:20am 25.3 NW 10 - 1011.0 - - - - - - - - -
27/05:00am 25.2 NNW 8 10 1010.8 - - - - - - - - -
27/04:30am 25.0 NNW 8 9 1010.6 - - - - - - - - -
27/04:20am 25.0 NNW 8 - 1010.4 - - - - - - - - -
27/04:00am 25.0 NNW 8 10 1010.4 - - - - - - - - -

Other Formats:

Comma delimited format used in spreadsheet applications
http://www.bom.gov.au/fwo/IDQ60701/IDQ60701.94371.axf

JavaScript Object Notation format (JSON) in row-major order
http://www.bom.gov.au/fwo/IDQ60701/IDQ60701.94371.json